createdAt,value
2022-09-18T00:00:39.164Z,1.92
2022-09-18T00:01:41.750Z,2.33
2022-09-18T00:02:43.329Z,2.20
2022-09-18T00:03:46.418Z,2.05
2022-09-18T00:04:48.035Z,2.10
2022-09-18T00:05:49.584Z,1.95
2022-09-18T00:06:51.118Z,1.90
2022-09-18T00:07:52.632Z,2.17
2022-09-18T00:08:58.129Z,2.10
2022-09-18T00:09:59.784Z,2.33
2022-09-18T00:11:07.885Z,1.83
2022-09-18T00:12:09.511Z,2.00
2022-09-18T00:13:11.485Z,2.72
2022-09-18T00:14:16.349Z,2.38
2022-09-18T00:15:17.860Z,2.25
2022-09-18T00:16:21.943Z,1.50
2022-09-18T00:17:23.555Z,1.65
2022-09-18T00:18:25.189Z,1.95
2022-09-18T00:19:27.085Z,1.92
2022-09-18T00:20:28.714Z,2.08
2022-09-18T00:21:31.966Z,2.13
2022-09-18T00:22:34.031Z,2.00
2022-09-18T00:23:36.022Z,2.03
2022-09-18T00:24:37.641Z,2.00
2022-09-18T00:25:39.174Z,1.73
2022-09-18T00:26:40.960Z,2.00
2022-09-18T00:27:42.482Z,2.47
2022-09-18T00:28:44.706Z,2.03
2022-09-18T00:29:46.316Z,2.10
2022-09-18T00:30:47.995Z,1.70
2022-09-18T00:31:49.668Z,2.27
2022-09-18T00:32:51.503Z,2.00
2022-09-18T00:33:53.900Z,2.20
2022-09-18T00:34:55.414Z,2.07
2022-09-18T00:36:00.761Z,1.90
2022-09-18T00:37:02.295Z,2.37
2022-09-18T00:38:03.808Z,1.70
2022-09-18T00:39:06.515Z,1.90
2022-09-18T00:40:08.642Z,2.22
2022-09-18T00:41:17.042Z,2.20
2022-09-18T00:42:20.405Z,2.00
2022-09-18T00:43:29.122Z,2.55
2022-09-18T00:44:38.031Z,2.07
2022-09-18T00:45:39.625Z,2.10
2022-09-18T00:46:44.669Z,2.77
2022-09-18T00:47:49.055Z,2.27
2022-09-18T00:49:20.732Z,2.20
2022-09-18T00:50:26.921Z,2.37
2022-09-18T00:51:30.625Z,2.73
2022-09-18T00:52:55.572Z,2.33
2022-09-18T00:54:09.085Z,2.33
2022-09-18T00:55:11.930Z,2.22
2022-09-18T00:56:15.685Z,2.33
2022-09-18T00:57:21.915Z,2.03
2022-09-18T00:58:23.512Z,2.47
2022-09-18T00:59:31.145Z,2.00
2022-09-18T01:00:33.254Z,2.27
2022-09-18T01:01:34.877Z,2.23
2022-09-18T01:02:36.489Z,2.40
2022-09-18T01:03:38.182Z,2.80
2022-09-18T01:04:39.818Z,2.27
2022-09-18T01:06:15.094Z,2.60
2022-09-18T01:07:31.516Z,2.00
2022-09-18T01:09:10.768Z,1.90
2022-09-18T01:10:39.100Z,2.30
2022-09-18T01:12:15.756Z,2.00
2022-09-18T01:13:26.340Z,2.30
2022-09-18T01:14:41.161Z,2.33
2022-09-18T01:16:15.514Z,2.70
2022-09-18T01:18:04.456Z,2.57
2022-09-18T01:19:15.682Z,2.27
2022-09-18T01:20:26.324Z,2.20
2022-09-18T01:21:47.491Z,2.27
2022-09-18T01:23:14.131Z,2.70
2022-09-18T01:24:34.484Z,2.13
2022-09-18T01:25:53.092Z,2.40
2022-09-18T01:26:59.197Z,2.63
2022-09-18T01:28:18.998Z,2.20
2022-09-18T01:29:23.387Z,2.17
2022-09-18T01:30:25.071Z,2.53
2022-09-18T01:31:59.611Z,2.30
2022-09-18T01:33:08.200Z,2.43
2022-09-18T01:34:20.085Z,2.37
2022-09-18T01:35:41.072Z,2.43
2022-09-18T01:36:48.281Z,2.83
2022-09-18T01:38:10.103Z,2.33
2022-09-18T01:39:20.531Z,2.30
2022-09-18T01:40:27.994Z,2.17
2022-09-18T01:41:30.918Z,2.70
2022-09-18T01:42:35.286Z,2.47
2022-09-18T01:43:40.256Z,2.63
2022-09-18T01:44:44.386Z,2.47
2022-09-18T01:45:49.445Z,2.50
2022-09-18T01:46:52.813Z,2.63
2022-09-18T01:48:01.672Z,3.53
2022-09-18T01:49:06.987Z,2.70
2022-09-18T01:50:11.315Z,2.60
2022-09-18T01:51:20.922Z,2.70
2022-09-18T01:52:59.573Z,3.07
2022-09-18T01:54:06.982Z,2.20
2022-09-18T01:55:15.366Z,2.50
2022-09-18T01:56:24.452Z,2.20
2022-09-18T01:57:32.875Z,2.70
2022-09-18T01:58:35.407Z,2.40
2022-09-18T01:59:44.469Z,2.33
2022-09-18T02:00:51.358Z,2.43
2022-09-18T02:01:55.366Z,2.00
2022-09-18T02:03:10.773Z,2.13
2022-09-18T02:04:19.125Z,1.93
2022-09-18T02:05:27.784Z,2.20
2022-09-18T02:06:36.321Z,2.10
2022-09-18T02:07:58.831Z,1.85
2022-09-18T02:09:02.075Z,1.93
2022-09-18T02:10:04.957Z,1.98
2022-09-18T02:11:10.301Z,2.10
2022-09-18T02:12:18.301Z,1.90
2022-09-18T02:13:26.767Z,2.00
2022-09-18T02:14:30.136Z,1.90
2022-09-18T02:15:37.836Z,1.80
2022-09-18T02:16:45.934Z,1.92
2022-09-18T02:18:00.663Z,1.80
2022-09-18T02:19:13.499Z,1.83
2022-09-18T02:20:23.850Z,1.92
2022-09-18T02:21:30.589Z,2.13
2022-09-18T02:22:35.084Z,1.83
2022-09-18T02:23:38.976Z,2.23
2022-09-18T02:24:44.497Z,1.98
2022-09-18T02:25:57.277Z,2.27
2022-09-18T02:27:00.271Z,1.60
2022-09-18T02:28:03.177Z,1.90
2022-09-18T02:29:06.812Z,2.15
2022-09-18T02:30:09.668Z,2.10
2022-09-18T02:31:12.987Z,1.80
2022-09-18T02:32:15.144Z,1.92
2022-09-18T02:33:23.840Z,1.80
2022-09-18T02:34:26.441Z,1.93
2022-09-18T02:35:39.204Z,2.15
2022-09-18T02:37:17.075Z,1.98
2022-09-18T02:38:41.714Z,1.92
2022-09-18T02:40:12.203Z,1.73
2022-09-18T02:41:23.197Z,1.92
2022-09-18T02:42:30.277Z,2.00
2022-09-18T02:43:57.775Z,2.13
2022-09-18T02:45:36.873Z,1.83
2022-09-18T02:46:47.662Z,1.80
2022-09-18T02:48:05.245Z,2.03
2022-09-18T02:49:15.527Z,2.60
2022-09-18T02:50:39.300Z,1.97
2022-09-18T02:51:49.314Z,2.93
2022-09-18T02:52:53.596Z,2.53
2022-09-18T02:54:04.936Z,2.67
2022-09-18T02:55:15.475Z,2.40
2022-09-18T02:56:42.660Z,2.90
2022-09-18T02:57:49.373Z,2.60
2022-09-18T02:58:57.937Z,2.10
2022-09-18T03:00:01.537Z,2.67
2022-09-18T03:01:05.518Z,2.10
2022-09-18T03:02:08.273Z,2.10
2022-09-18T03:03:19.394Z,2.27
2022-09-18T03:04:23.810Z,2.40
2022-09-18T03:05:26.427Z,2.50
2022-09-18T03:06:27.958Z,2.63
2022-09-18T03:07:29.497Z,2.53
2022-09-18T03:08:31.104Z,2.60
2022-09-18T03:09:34.669Z,2.50
2022-09-18T03:10:36.259Z,2.37
2022-09-18T03:11:37.830Z,2.80
2022-09-18T03:12:39.398Z,3.30
2022-09-18T03:13:40.927Z,2.77
2022-09-18T03:14:42.581Z,3.37
2022-09-18T03:15:44.145Z,3.33
2022-09-18T03:16:46.328Z,3.00
2022-09-18T03:17:47.845Z,2.50
2022-09-18T03:18:49.377Z,2.43
2022-09-18T03:19:50.911Z,2.20
2022-09-18T03:20:52.549Z,2.53
2022-09-18T03:21:54.161Z,2.63
2022-09-18T03:22:55.665Z,2.53
2022-09-18T03:23:57.341Z,2.90
2022-09-18T03:24:58.866Z,2.80
2022-09-18T03:26:00.387Z,2.27
2022-09-18T03:27:02.865Z,2.10
2022-09-18T03:28:04.799Z,2.60
2022-09-18T03:29:09.611Z,2.20
2022-09-18T03:30:11.816Z,1.80
2022-09-18T03:31:13.718Z,1.80
2022-09-18T03:32:15.317Z,2.33
2022-09-18T03:33:17.138Z,1.90
2022-09-18T03:34:18.753Z,1.80
2022-09-18T03:35:20.716Z,1.80
2022-09-18T03:36:22.269Z,2.17
2022-09-18T03:37:24.345Z,2.10
2022-09-18T03:38:25.837Z,1.70
2022-09-18T03:39:27.397Z,2.20
2022-09-18T03:40:29.410Z,1.80
2022-09-18T03:41:31.013Z,1.63
2022-09-18T03:42:32.573Z,1.67
2022-09-18T03:43:34.512Z,1.60
2022-09-18T03:44:36.095Z,1.60
2022-09-18T03:45:37.913Z,1.77
2022-09-18T03:46:39.554Z,1.40
2022-09-18T03:47:41.171Z,1.40
2022-09-18T03:48:42.681Z,1.23
2022-09-18T03:49:44.186Z,1.40
2022-09-18T03:50:48.083Z,1.50
2022-09-18T03:51:49.582Z,1.30
2022-09-18T03:52:51.754Z,1.30
2022-09-18T03:53:53.359Z,1.40
2022-09-18T03:54:55.093Z,1.17
2022-09-18T03:55:56.739Z,1.30
2022-09-18T03:56:58.329Z,1.40
2022-09-18T03:57:59.856Z,1.20
2022-09-18T03:59:01.400Z,1.20
2022-09-18T04:00:03.791Z,1.17
2022-09-18T04:01:06.891Z,1.20
2022-09-18T04:02:08.630Z,0.87
2022-09-18T04:03:10.207Z,1.10
2022-09-18T04:04:11.771Z,1.00
2022-09-18T04:05:13.372Z,1.17
2022-09-18T04:06:14.880Z,0.90
2022-09-18T04:07:16.768Z,1.00
2022-09-18T04:08:18.609Z,0.63
2022-09-18T04:09:20.122Z,0.80
2022-09-18T04:10:22.685Z,0.80
2022-09-18T04:11:24.261Z,0.70
2022-09-18T04:12:25.834Z,0.73
2022-09-18T04:13:27.726Z,0.80
2022-09-18T04:14:30.225Z,0.70
2022-09-18T04:15:32.028Z,0.73
2022-09-18T04:16:33.918Z,0.60
2022-09-18T04:17:35.452Z,0.50
2022-09-18T04:18:36.967Z,0.63
2022-09-18T04:19:38.547Z,0.50
2022-09-18T04:20:40.164Z,0.60
2022-09-18T04:21:41.662Z,0.87
2022-09-18T04:22:43.566Z,0.67
2022-09-18T04:23:45.312Z,0.60
2022-09-18T04:24:47.508Z,0.70
2022-09-18T04:25:49.423Z,0.60
2022-09-18T04:26:51.048Z,0.80
2022-09-18T04:27:52.602Z,0.70
2022-09-18T04:28:54.257Z,0.50
2022-09-18T04:29:55.789Z,0.40
2022-09-18T04:30:58.444Z,0.50
2022-09-18T04:32:00.047Z,0.50
2022-09-18T04:33:01.572Z,0.60
2022-09-18T04:34:03.160Z,0.60
2022-09-18T04:35:05.861Z,0.60
2022-09-18T04:36:07.470Z,0.50
2022-09-18T04:37:10.475Z,0.50
2022-09-18T04:38:12.299Z,0.50
2022-09-18T04:39:13.909Z,0.40
2022-09-18T04:40:15.663Z,0.50
2022-09-18T04:41:17.234Z,0.40
2022-09-18T04:42:18.815Z,0.40
2022-09-18T04:43:20.497Z,0.40
2022-09-18T04:44:22.097Z,0.30
2022-09-18T04:45:23.671Z,0.50
2022-09-18T04:46:25.343Z,0.40
2022-09-18T04:47:26.994Z,0.60
2022-09-18T04:48:28.825Z,0.30
2022-09-18T04:49:30.383Z,0.60
2022-09-18T04:50:31.883Z,0.40
2022-09-18T04:51:33.583Z,0.40
2022-09-18T04:52:36.092Z,0.40
2022-09-18T04:53:39.494Z,0.40
2022-09-18T04:54:41.305Z,0.50
2022-09-18T04:55:44.901Z,0.50
2022-09-18T04:56:46.545Z,0.40
2022-09-18T04:57:51.236Z,0.43
2022-09-18T04:58:56.449Z,0.50
2022-09-18T04:59:57.993Z,0.33
2022-09-18T05:00:59.609Z,0.60
2022-09-18T05:02:01.402Z,0.40
2022-09-18T05:03:03.010Z,0.40
2022-09-18T05:04:04.627Z,0.47
2022-09-18T05:05:06.413Z,0.57
2022-09-18T05:06:07.956Z,0.57
2022-09-18T05:07:09.463Z,0.50
2022-09-18T05:08:10.966Z,0.40
2022-09-18T05:09:12.493Z,0.50
2022-09-18T05:10:14.168Z,0.50
2022-09-18T05:11:15.820Z,0.50
2022-09-18T05:12:17.652Z,0.50
2022-09-18T05:13:19.229Z,0.70
2022-09-18T05:14:20.989Z,0.80
2022-09-18T05:15:22.737Z,0.60
2022-09-18T05:16:24.949Z,0.60
2022-09-18T05:17:26.560Z,0.70
2022-09-18T05:18:28.210Z,0.43
2022-09-18T05:19:29.781Z,0.50
2022-09-18T05:20:33.076Z,0.50
2022-09-18T05:21:34.817Z,0.60
2022-09-18T05:22:36.961Z,0.60
2022-09-18T05:23:38.544Z,0.50
2022-09-18T05:24:40.209Z,0.60
2022-09-18T05:25:44.821Z,0.60
2022-09-18T05:26:46.651Z,0.80
2022-09-18T05:27:58.849Z,0.47
2022-09-18T05:29:00.371Z,0.60
2022-09-18T05:30:01.943Z,0.60
2022-09-18T05:31:04.476Z,0.60
2022-09-18T05:32:06.051Z,0.60
2022-09-18T05:33:08.189Z,0.57
2022-09-18T05:34:09.861Z,0.60
2022-09-18T05:35:11.353Z,0.60
2022-09-18T05:36:12.991Z,0.50
2022-09-18T05:37:14.564Z,0.63
2022-09-18T05:38:16.088Z,0.60
2022-09-18T05:39:17.937Z,0.40
2022-09-18T05:40:21.293Z,0.40
2022-09-18T05:41:22.952Z,0.60
2022-09-18T05:42:24.507Z,0.60
2022-09-18T05:43:26.084Z,0.40
2022-09-18T05:44:27.592Z,0.40
2022-09-18T05:45:29.442Z,0.50
2022-09-18T05:46:31.114Z,0.50
2022-09-18T05:47:35.249Z,0.70
2022-09-18T05:48:36.899Z,0.70
2022-09-18T05:49:38.380Z,0.60
2022-09-18T05:50:40.427Z,0.50
2022-09-18T05:51:42.096Z,0.80
2022-09-18T05:52:43.992Z,0.60
2022-09-18T05:53:48.549Z,0.70
2022-09-18T05:54:50.129Z,0.60
2022-09-18T05:55:51.652Z,0.60
2022-09-18T05:56:54.119Z,0.53
2022-09-18T05:57:57.069Z,0.63
2022-09-18T05:58:58.797Z,0.60
2022-09-18T06:00:00.304Z,0.57
2022-09-18T06:01:04.590Z,0.60
2022-09-18T06:02:06.248Z,0.57
2022-09-18T06:03:11.213Z,0.40
2022-09-18T06:04:12.891Z,0.50
2022-09-18T06:05:14.943Z,0.60
2022-09-18T06:06:17.022Z,0.60
2022-09-18T06:07:18.598Z,0.40
2022-09-18T06:08:21.057Z,0.30
2022-09-18T06:09:22.560Z,0.50
2022-09-18T06:10:25.333Z,0.63
2022-09-18T06:11:27.748Z,0.43
2022-09-18T06:12:29.281Z,0.50
2022-09-18T06:13:30.861Z,0.60
2022-09-18T06:14:32.390Z,0.40
2022-09-18T06:15:35.240Z,0.40
2022-09-18T06:16:41.946Z,0.50
2022-09-18T06:17:51.366Z,0.60
2022-09-18T06:18:52.885Z,0.60
2022-09-18T06:19:54.397Z,0.40
2022-09-18T06:20:57.917Z,0.50
2022-09-18T06:21:59.693Z,0.70
2022-09-18T06:23:02.671Z,0.43
2022-09-18T06:24:04.314Z,0.40
2022-09-18T06:25:06.269Z,0.50
2022-09-18T06:26:11.505Z,0.40
2022-09-18T06:27:16.185Z,0.50
2022-09-18T06:28:17.737Z,0.53
2022-09-18T06:29:19.259Z,0.50
2022-09-18T06:30:20.874Z,0.50
2022-09-18T06:31:22.485Z,0.67
2022-09-18T06:32:24.090Z,0.50
2022-09-18T06:33:25.814Z,0.70
2022-09-18T06:34:27.318Z,0.40
2022-09-18T06:35:28.978Z,0.43
2022-09-18T06:36:30.489Z,0.40
2022-09-18T06:37:32.022Z,0.40
2022-09-18T06:38:33.709Z,0.70
2022-09-18T06:39:35.598Z,0.50
2022-09-18T06:40:37.167Z,0.40
2022-09-18T06:41:38.761Z,0.60
2022-09-18T06:42:45.318Z,0.60
2022-09-18T06:43:50.331Z,0.57
2022-09-18T06:44:51.887Z,0.60
2022-09-18T06:45:54.873Z,0.50
2022-09-18T06:46:56.529Z,0.43
2022-09-18T06:48:02.404Z,0.63
2022-09-18T06:49:04.398Z,0.60
2022-09-18T06:50:08.039Z,0.63
2022-09-18T06:51:09.798Z,0.60
2022-09-18T06:52:11.450Z,0.70
2022-09-18T06:53:13.068Z,0.60
2022-09-18T06:54:15.896Z,0.70
2022-09-18T06:55:18.794Z,0.80
2022-09-18T06:56:20.319Z,0.93
2022-09-18T06:57:21.843Z,0.70
2022-09-18T06:58:23.408Z,0.70
2022-09-18T06:59:24.965Z,0.87
2022-09-18T07:00:27.984Z,0.87
2022-09-18T07:01:29.724Z,0.90
2022-09-18T07:02:31.579Z,0.90
2022-09-18T07:03:33.165Z,1.10
2022-09-18T07:04:35.234Z,1.00
2022-09-18T07:05:41.599Z,0.87
2022-09-18T07:06:46.798Z,0.90
2022-09-18T07:07:48.354Z,1.07
2022-09-18T07:08:50.249Z,1.00
2022-09-18T07:09:52.551Z,1.10
2022-09-18T07:10:54.273Z,1.20
2022-09-18T07:11:57.212Z,0.70
2022-09-18T07:13:00.569Z,1.00
2022-09-18T07:14:05.065Z,0.70
2022-09-18T07:15:06.779Z,1.00
2022-09-18T07:16:08.341Z,0.93
2022-09-18T07:17:18.099Z,1.00
2022-09-18T07:18:20.840Z,0.90
2022-09-18T07:19:22.720Z,0.77
2022-09-18T07:20:24.796Z,1.00
2022-09-18T07:21:26.772Z,1.00
2022-09-18T07:22:28.693Z,1.10
2022-09-18T07:23:33.048Z,1.00
2022-09-18T07:24:36.694Z,1.00
2022-09-18T07:25:38.216Z,0.90
2022-09-18T07:26:39.786Z,0.80
2022-09-18T07:27:41.338Z,0.90
2022-09-18T07:28:42.892Z,0.90
2022-09-18T07:29:44.462Z,0.97
2022-09-18T07:30:46.679Z,0.70
2022-09-18T07:31:48.289Z,0.97
2022-09-18T07:32:49.890Z,0.93
2022-09-18T07:33:55.054Z,0.80
2022-09-18T07:34:56.548Z,0.80
2022-09-18T07:36:05.329Z,1.03
2022-09-18T07:37:06.850Z,0.90
2022-09-18T07:38:09.727Z,0.97
2022-09-18T07:39:11.276Z,0.90
2022-09-18T07:40:12.962Z,0.80
2022-09-18T07:41:14.572Z,0.87
2022-09-18T07:42:16.106Z,0.70
2022-09-18T07:43:17.673Z,1.00
2022-09-18T07:44:19.208Z,0.90
2022-09-18T07:45:20.766Z,0.70
2022-09-18T07:46:22.442Z,0.90
2022-09-18T07:47:25.328Z,0.73
2022-09-18T07:48:26.830Z,0.80
2022-09-18T07:49:28.385Z,0.87
2022-09-18T07:50:29.967Z,0.70
2022-09-18T07:51:31.539Z,0.80
2022-09-18T07:52:33.055Z,0.80
2022-09-18T07:53:34.589Z,0.80
2022-09-18T07:54:36.395Z,0.97
2022-09-18T07:55:38.204Z,1.07
2022-09-18T07:56:43.543Z,0.73
2022-09-18T07:57:48.743Z,1.00
2022-09-18T07:58:50.245Z,0.80
2022-09-18T07:59:51.763Z,0.80
2022-09-18T08:00:53.290Z,0.90
2022-09-18T08:01:55.905Z,0.73
2022-09-18T08:03:11.711Z,0.90
2022-09-18T08:04:13.476Z,1.10
2022-09-18T08:05:15.059Z,0.70
2022-09-18T08:06:17.625Z,0.90
2022-09-18T08:07:19.216Z,0.70
2022-09-18T08:08:20.939Z,0.70
2022-09-18T08:09:22.527Z,0.70
2022-09-18T08:10:25.184Z,0.63
2022-09-18T08:11:26.831Z,0.80
2022-09-18T08:12:28.395Z,0.67
2022-09-18T08:13:30.209Z,0.80
2022-09-18T08:14:31.749Z,0.80
2022-09-18T08:15:36.470Z,0.77
2022-09-18T08:16:38.153Z,0.87
2022-09-18T08:17:46.556Z,0.80
2022-09-18T08:18:48.915Z,0.70
2022-09-18T08:19:50.503Z,0.67
2022-09-18T08:20:55.795Z,0.70
2022-09-18T08:21:57.446Z,0.70
2022-09-18T08:22:59.089Z,0.70
2022-09-18T08:24:00.701Z,0.90
2022-09-18T08:25:02.253Z,0.60
2022-09-18T08:26:04.931Z,0.50
2022-09-18T08:27:06.429Z,0.50
2022-09-18T08:28:08.305Z,0.73
2022-09-18T08:29:09.816Z,0.60
2022-09-18T08:30:13.690Z,0.60
2022-09-18T08:31:15.339Z,0.60
2022-09-18T08:32:16.893Z,0.70
2022-09-18T08:33:18.404Z,0.60
2022-09-18T08:34:19.954Z,0.60
2022-09-18T08:35:21.474Z,0.53
2022-09-18T08:36:23.048Z,0.60
2022-09-18T08:37:24.553Z,0.80
2022-09-18T08:38:26.081Z,0.70
2022-09-18T08:39:27.652Z,0.60
2022-09-18T08:40:35.058Z,0.60
2022-09-18T08:41:54.833Z,0.53
2022-09-18T08:43:14.770Z,0.60
2022-09-18T08:44:18.448Z,0.80
2022-09-18T08:45:37.960Z,0.70
2022-09-18T08:46:49.526Z,0.70
2022-09-18T08:47:58.725Z,0.80
2022-09-18T08:49:23.566Z,0.77
2022-09-18T08:50:29.487Z,0.60
2022-09-18T08:51:36.753Z,0.70
2022-09-18T08:52:42.583Z,0.70
2022-09-18T08:53:49.616Z,0.73
2022-09-18T08:55:03.258Z,0.67
2022-09-18T08:56:11.362Z,0.60
2022-09-18T08:57:46.806Z,0.87
2022-09-18T08:59:14.474Z,0.70
2022-09-18T09:00:23.000Z,0.60
2022-09-18T09:01:43.014Z,0.70
2022-09-18T09:02:50.872Z,0.50
2022-09-18T09:04:17.596Z,0.73
2022-09-18T09:05:22.028Z,0.73
2022-09-18T09:06:26.801Z,0.70
2022-09-18T09:07:47.130Z,0.53
2022-09-18T09:08:48.611Z,0.70
2022-09-18T09:10:23.632Z,0.70
2022-09-18T09:11:28.270Z,0.67
2022-09-18T09:12:47.704Z,0.60
2022-09-18T09:14:34.235Z,0.63
2022-09-18T09:16:07.458Z,0.80
2022-09-18T09:17:48.157Z,0.80
2022-09-18T09:18:52.165Z,0.90
2022-09-18T09:20:03.464Z,0.77
2022-09-18T09:21:22.177Z,0.80
2022-09-18T09:22:36.825Z,0.70
2022-09-18T09:24:17.181Z,0.80
2022-09-18T09:25:52.589Z,0.70
2022-09-18T09:26:56.237Z,0.70
2022-09-18T09:28:16.689Z,0.70
2022-09-18T09:29:25.489Z,0.60
2022-09-18T09:30:30.613Z,0.80
2022-09-18T09:31:46.745Z,0.50
2022-09-18T09:32:53.843Z,0.63
2022-09-18T09:34:04.485Z,0.70
2022-09-18T09:35:44.884Z,0.63
2022-09-18T09:36:52.076Z,0.80
2022-09-18T09:37:53.859Z,0.80
2022-09-18T09:39:06.339Z,0.60
2022-09-18T09:40:20.229Z,0.70
2022-09-18T09:41:27.800Z,0.60
2022-09-18T09:42:40.513Z,0.70
2022-09-18T09:43:44.690Z,0.70
2022-09-18T09:45:09.246Z,0.80
2022-09-18T09:46:57.259Z,0.70
2022-09-18T09:48:15.115Z,0.63
2022-09-18T09:49:31.780Z,0.67
2022-09-18T09:51:03.875Z,0.77
2022-09-18T09:52:18.051Z,0.60
2022-09-18T09:53:22.623Z,0.40
2022-09-18T09:54:24.897Z,0.50
2022-09-18T09:55:32.055Z,0.63
2022-09-18T09:56:56.748Z,0.53
2022-09-18T09:58:11.647Z,0.60
2022-09-18T09:59:24.361Z,0.77
2022-09-18T10:00:26.031Z,0.60
2022-09-18T10:01:41.391Z,0.70
2022-09-18T10:02:45.544Z,0.60
2022-09-18T10:03:57.070Z,0.50
2022-09-18T10:05:23.550Z,0.50
2022-09-18T10:06:43.403Z,0.70
2022-09-18T10:08:04.919Z,0.70
2022-09-18T10:09:09.422Z,0.63
2022-09-18T10:10:13.744Z,0.67
2022-09-18T10:11:16.885Z,0.60
2022-09-18T10:12:26.680Z,0.60
2022-09-18T10:13:36.525Z,0.53
2022-09-18T10:14:42.165Z,0.80
2022-09-18T10:15:53.530Z,0.50
2022-09-18T10:16:57.143Z,0.60
2022-09-18T10:18:01.412Z,0.53
2022-09-18T10:19:04.678Z,0.70
2022-09-18T10:20:07.533Z,0.67
2022-09-18T10:21:16.206Z,0.70
2022-09-18T10:22:23.181Z,0.70
2022-09-18T10:23:39.005Z,0.50
2022-09-18T10:24:55.951Z,0.70
2022-09-18T10:26:00.521Z,0.60
2022-09-18T10:27:07.973Z,0.53
2022-09-18T10:28:18.407Z,0.30
2022-09-18T10:29:20.024Z,0.50
2022-09-18T10:30:21.548Z,0.43
2022-09-18T10:31:23.255Z,0.60
2022-09-18T10:32:39.064Z,1.13
2022-09-18T10:33:42.129Z,0.80
2022-09-18T10:34:45.992Z,0.60
2022-09-18T10:35:47.653Z,0.60
2022-09-18T10:36:49.170Z,0.63
2022-09-18T10:37:50.740Z,0.47
2022-09-18T10:38:52.312Z,0.80
2022-09-18T10:39:57.717Z,0.53
2022-09-18T10:41:18.333Z,0.50
2022-09-18T10:42:23.361Z,0.50
2022-09-18T10:43:25.118Z,0.50
2022-09-18T10:44:43.641Z,0.60
2022-09-18T10:45:52.523Z,0.50
2022-09-18T10:47:18.370Z,0.43
2022-09-18T10:48:27.440Z,0.60
2022-09-18T10:49:40.854Z,0.50
2022-09-18T10:51:01.713Z,0.70
2022-09-18T10:52:21.831Z,0.50
2022-09-18T10:53:32.358Z,0.77
2022-09-18T10:54:33.962Z,0.50
2022-09-18T10:55:51.571Z,0.53
2022-09-18T10:57:05.794Z,0.43
2022-09-18T10:58:17.462Z,0.40
2022-09-18T10:59:28.358Z,0.50
2022-09-18T11:00:37.083Z,0.50
2022-09-18T11:01:42.701Z,0.50
2022-09-18T11:02:50.897Z,0.60
2022-09-18T11:04:05.857Z,0.50
2022-09-18T11:05:22.238Z,0.53
2022-09-18T11:06:26.077Z,0.40
2022-09-18T11:07:27.724Z,0.40
2022-09-18T11:08:34.111Z,0.50
2022-09-18T11:09:39.704Z,0.50
2022-09-18T11:10:48.620Z,0.50
2022-09-18T11:11:51.559Z,0.40
2022-09-18T11:12:56.786Z,0.50
2022-09-18T11:13:59.960Z,0.50
2022-09-18T11:15:06.317Z,0.40
2022-09-18T11:16:08.971Z,0.40
2022-09-18T11:17:19.248Z,0.53
2022-09-18T11:18:21.442Z,0.63
2022-09-18T11:19:34.718Z,0.50
2022-09-18T11:20:44.968Z,1.00
2022-09-18T11:21:48.905Z,0.70
2022-09-18T11:22:51.109Z,0.70
2022-09-18T11:24:03.434Z,0.57
2022-09-18T11:25:17.221Z,0.70
2022-09-18T11:26:29.972Z,0.68
2022-09-18T11:27:45.098Z,0.80
2022-09-18T11:29:19.182Z,0.70
2022-09-18T11:30:27.830Z,0.80
2022-09-18T11:31:48.205Z,1.00
2022-09-18T11:32:58.665Z,0.83
2022-09-18T11:34:05.598Z,0.70
2022-09-18T11:35:15.925Z,0.93
2022-09-18T11:36:25.523Z,0.70
2022-09-18T11:37:34.271Z,1.00
2022-09-18T11:38:45.083Z,0.90
2022-09-18T11:40:01.587Z,0.70
2022-09-18T11:41:04.338Z,0.60
2022-09-18T11:42:12.436Z,0.80
2022-09-18T11:43:16.535Z,0.40
2022-09-18T11:44:27.621Z,0.70
2022-09-18T11:45:32.188Z,0.80
2022-09-18T11:46:49.957Z,0.87
2022-09-18T11:48:02.531Z,0.80
2022-09-18T11:49:13.016Z,0.53
2022-09-18T11:50:19.377Z,0.60
2022-09-18T11:51:32.945Z,1.00
2022-09-18T11:52:40.416Z,0.63
2022-09-18T11:53:51.268Z,0.50
2022-09-18T11:54:58.901Z,0.63
2022-09-18T11:56:12.653Z,0.50
2022-09-18T11:57:30.011Z,0.40
2022-09-18T11:58:58.039Z,0.50
2022-09-18T12:00:12.355Z,0.30
2022-09-18T12:01:38.833Z,0.50
2022-09-18T12:03:02.350Z,0.60
2022-09-18T12:04:15.014Z,0.50
2022-09-18T12:05:28.941Z,0.40
2022-09-18T12:06:52.363Z,0.60
2022-09-18T12:08:04.918Z,0.47
2022-09-18T12:09:15.164Z,0.50
2022-09-18T12:10:44.569Z,0.60
2022-09-18T12:12:04.343Z,0.60
2022-09-18T12:13:20.736Z,0.40
2022-09-18T12:14:47.173Z,0.70
2022-09-18T12:15:56.245Z,0.53
2022-09-18T12:17:02.151Z,0.80
2022-09-18T12:18:12.089Z,0.80
2022-09-18T12:19:29.663Z,0.70
2022-09-18T12:20:37.940Z,0.80
2022-09-18T12:21:54.869Z,0.90
2022-09-18T12:23:01.558Z,0.60
2022-09-18T12:24:03.528Z,0.60
2022-09-18T12:25:14.611Z,1.00
2022-09-18T12:26:16.094Z,0.90
2022-09-18T12:27:44.868Z,0.70
2022-09-18T12:29:29.666Z,0.90
2022-09-18T12:30:59.136Z,0.70
2022-09-18T12:32:00.656Z,0.90
2022-09-18T12:33:16.525Z,0.87
2022-09-18T12:34:36.071Z,1.07
2022-09-18T12:35:58.716Z,0.80
2022-09-18T12:37:15.441Z,0.77
2022-09-18T12:38:55.486Z,0.60
2022-09-18T12:40:26.039Z,0.90
2022-09-18T12:41:45.419Z,1.07
2022-09-18T12:42:53.225Z,1.10
2022-09-18T12:44:39.753Z,1.00
2022-09-18T12:45:43.983Z,0.80
2022-09-18T12:46:56.903Z,0.83
2022-09-18T12:48:28.115Z,0.90
2022-09-18T12:49:59.060Z,0.80
2022-09-18T12:51:41.842Z,1.10
2022-09-18T12:53:35.153Z,1.20
2022-09-18T12:54:45.332Z,1.03
2022-09-18T12:55:57.330Z,1.00
2022-09-18T12:57:13.809Z,1.03
2022-09-18T12:58:40.514Z,1.20
2022-09-18T12:59:56.939Z,1.00
2022-09-18T13:01:03.535Z,0.90
2022-09-18T13:02:27.896Z,1.00
2022-09-18T13:03:39.649Z,1.00
2022-09-18T13:04:48.050Z,0.90
2022-09-18T13:05:56.137Z,1.20
2022-09-18T13:07:16.891Z,1.07
2022-09-18T13:08:36.779Z,1.17
2022-09-18T13:09:48.781Z,1.20
2022-09-18T13:10:56.187Z,1.07
2022-09-18T13:12:03.583Z,1.00
2022-09-18T13:13:45.994Z,1.30
2022-09-18T13:14:53.730Z,1.30
2022-09-18T13:16:17.706Z,1.17
2022-09-18T13:17:32.151Z,1.40
2022-09-18T13:18:43.084Z,1.20
2022-09-18T13:19:56.313Z,1.30
2022-09-18T13:21:00.059Z,1.27
2022-09-18T13:22:09.823Z,1.33
2022-09-18T13:23:17.640Z,1.43
2022-09-18T13:24:31.069Z,1.07
2022-09-18T13:25:39.768Z,1.20
2022-09-18T13:26:42.790Z,1.30
2022-09-18T13:27:44.504Z,1.00
2022-09-18T13:28:46.098Z,1.20
2022-09-18T13:29:51.465Z,1.00
2022-09-18T13:31:14.544Z,1.10
2022-09-18T13:32:40.860Z,1.20
2022-09-18T13:34:00.652Z,1.17
2022-09-18T13:35:07.074Z,1.13
2022-09-18T13:36:08.588Z,1.10
2022-09-18T13:37:16.907Z,1.10
2022-09-18T13:38:22.048Z,1.20
2022-09-18T13:39:37.580Z,0.90
2022-09-18T13:40:56.855Z,0.80
2022-09-18T13:42:00.190Z,1.10
2022-09-18T13:43:25.664Z,0.80
2022-09-18T13:44:34.812Z,0.90
2022-09-18T13:45:38.720Z,1.13
2022-09-18T13:46:41.825Z,1.10
2022-09-18T13:48:05.411Z,1.00
2022-09-18T13:49:22.226Z,1.13
2022-09-18T13:50:23.884Z,1.00
2022-09-18T13:51:32.163Z,0.80
2022-09-18T13:52:33.623Z,0.97
2022-09-18T13:53:44.091Z,1.20
2022-09-18T13:55:12.910Z,0.90
2022-09-18T13:56:16.846Z,1.07
2022-09-18T13:57:20.133Z,1.30
2022-09-18T13:58:33.887Z,1.23
2022-09-18T13:59:56.391Z,1.00
2022-09-18T14:01:00.187Z,1.27
2022-09-18T14:02:02.489Z,1.00
2022-09-18T14:03:07.256Z,1.33
2022-09-18T14:04:39.638Z,1.20
2022-09-18T14:05:43.147Z,1.10
2022-09-18T14:06:45.574Z,1.10
2022-09-18T14:08:00.966Z,1.00
2022-09-18T14:09:26.731Z,1.43
2022-09-18T14:10:39.064Z,1.20
2022-09-18T14:11:40.692Z,1.37
2022-09-18T14:13:02.174Z,0.90
2022-09-18T14:14:11.983Z,1.20
2022-09-18T14:15:23.531Z,0.83
2022-09-18T14:16:27.216Z,1.17
2022-09-18T14:17:31.607Z,1.30
2022-09-18T14:18:48.255Z,1.03
2022-09-18T14:20:05.972Z,0.93
2022-09-18T14:21:18.255Z,1.07
2022-09-18T14:22:29.732Z,1.37
2022-09-18T14:23:34.457Z,1.00
2022-09-18T14:24:50.981Z,1.10
2022-09-18T14:25:52.546Z,0.90
2022-09-18T14:27:00.033Z,1.10
2022-09-18T14:28:05.478Z,0.97
2022-09-18T14:29:14.759Z,0.80
2022-09-18T14:30:20.144Z,1.00
2022-09-18T14:31:32.128Z,0.90
2022-09-18T14:32:34.760Z,0.80
2022-09-18T14:33:36.393Z,0.87
2022-09-18T14:34:42.083Z,1.10
2022-09-18T14:35:53.296Z,1.07
2022-09-18T14:37:01.059Z,1.00
2022-09-18T14:38:15.151Z,1.00
2022-09-18T14:39:23.793Z,0.97
2022-09-18T14:40:27.475Z,0.90
2022-09-18T14:41:35.302Z,0.90
2022-09-18T14:42:41.250Z,0.70
2022-09-18T14:43:55.752Z,0.80
2022-09-18T14:45:11.347Z,0.90
2022-09-18T14:46:20.935Z,0.70
2022-09-18T14:47:26.444Z,0.80
2022-09-18T14:48:36.767Z,0.70
2022-09-18T14:49:43.520Z,0.53
2022-09-18T14:50:45.188Z,0.80
2022-09-18T14:52:03.148Z,0.70
2022-09-18T14:53:24.519Z,1.00
2022-09-18T14:54:27.410Z,0.70
2022-09-18T14:55:35.570Z,0.80
2022-09-18T14:56:37.556Z,0.60
2022-09-18T14:57:47.748Z,0.90
2022-09-18T14:58:50.614Z,0.60
2022-09-18T14:59:56.400Z,0.80
2022-09-18T15:00:58.443Z,0.63
2022-09-18T15:02:35.600Z,0.80